Weather at RNAS HMS Tern Air Base [CLOSED]

Public forecast

Using degrees Celsius for public forecast. Weather courtesy of forecast.io.

Closest aviation weather report (METAR) to RNAS HMS Tern Air Base

Closest report is Kirkwall Airport, 14.1 nm (26.2 km) ESE.

2024/07/22 11:20 (retrieved 24 minutes ago)

EGPA 221120Z 09006KT 040V140 9999 FEW012 SCT027 16/10 Q1011

Closest aviation forecast (TAF) to RNAS HMS Tern Air Base

Closest forecast is RAF Lossiemouth, 83.1 nm (153.9 km) S.

2024/07/22 08:31 Ammendment (retrieved 3 hours ago)

TAF AMD EGQS 220828Z 2208/2224 24005KT 9999 FEW012 TEMPO 2208/2210 SCT012 PROB30 TEMPO 2210/2218 SCT022 PROB30 TEMPO 2214/2218 7000 SHRA PROB30 TEMPO 2223/2224 SCT012